Time;durP1;ratioP1;P1;durP2;ratioP2;P2;SDS_P1;SDS_P2;PMS_P1;PMS_P2;Temp;Humidity;BMP_temperature;BMP_pressure;BME280_temperature;BME280_humidity;BME280_pressure;Samples;Min_cycle;Max_cycle;Signal;HPM_P1;HPM_P2
2021/03/22 00:00:31;;;;;;;14.80;12.02;;;;;;;1.92;75.96;95425.94;5031776;28;20072;-76
2021/03/22 00:02:57;;;;;;;16.95;13.00;;;;;;;1.94;75.85;95421.22;5031115;28;20053;-77
2021/03/22 00:05:23;;;;;;;19.80;12.50;;;;;;;1.99;75.66;95415.25;5031531;28;20030;-74
2021/03/22 00:07:53;;;;;;;15.57;12.88;;;;;;;2.53;74.17;95426.69;5031396;28;20028;-77
2021/03/22 00:10:20;;;;;;;16.90;12.40;;;;;;;2.49;73.88;95409.81;5033771;28;20029;-76
2021/03/22 00:12:47;;;;;;;17.27;12.07;;;;;;;2.04;75.30;95415.31;5031193;28;20045;-74
2021/03/22 00:15:14;;;;;;;14.68;12.38;;;;;;;2.32;74.83;95417.78;5031654;28;20092;-77
2021/03/22 00:17:39;;;;;;;18.33;12.82;;;;;;;2.17;74.26;95408.94;5032188;28;20125;-79
2021/03/22 00:20:06;;;;;;;17.52;12.52;;;;;;;2.28;74.32;95411.41;5031526;28;20076;-76
2021/03/22 00:22:31;;;;;;;17.42;12.85;;;;;;;2.43;74.00;95402.94;5033067;28;20057;-76
2021/03/22 00:24:56;;;;;;;19.38;12.73;;;;;;;2.38;73.71;95400.25;5031329;28;20061;-76
2021/03/22 00:27:22;;;;;;;14.73;11.77;;;;;;;2.23;74.92;95410.56;5030981;28;20034;-76
2021/03/22 00:29:47;;;;;;;19.23;12.98;;;;;;;2.73;73.57;95405.09;5031415;28;20434;-75
2021/03/22 00:32:12;;;;;;;15.52;12.00;;;;;;;2.52;73.69;95396.22;5030285;28;20029;-74
2021/03/22 00:34:38;;;;;;;23.45;12.65;;;;;;;2.56;73.36;95402.56;5029368;28;20056;-74
2021/03/22 00:37:03;;;;;;;19.20;13.25;;;;;;;2.50;73.52;95397.47;5032021;28;20017;-74
2021/03/22 00:39:29;;;;;;;16.65;13.18;;;;;;;2.33;73.62;95389.69;5030836;28;20493;-74
2021/03/22 00:41:54;;;;;;;22.70;12.75;;;;;;;2.34;74.36;95404.41;5028804;28;20050;-75
2021/03/22 00:44:19;;;;;;;18.92;13.20;;;;;;;2.67;74.12;95407.91;5030457;28;20079;-75
2021/03/22 00:46:45;;;;;;;15.10;12.27;;;;;;;2.58;73.79;95389.97;5029691;28;20057;-74
2021/03/22 00:49:10;;;;;;;17.52;12.25;;;;;;;2.30;74.39;95398.88;5031950;28;20091;-73
2021/03/22 00:51:36;;;;;;;21.00;13.68;;;;;;;2.28;74.58;95390.41;5030407;28;20080;-75
2021/03/22 00:54:01;;;;;;;16.90;12.68;;;;;;;2.27;74.44;95380.19;5030328;28;20046;-75
2021/03/22 00:56:27;;;;;;;19.40;12.75;;;;;;;2.51;74.10;95373.63;5030642;28;20029;-77
2021/03/22 00:58:52;;;;;;;15.80;13.00;;;;;;;2.30;74.35;95364.75;5030494;28;20042;-76
2021/03/22 01:01:17;;;;;;;24.38;14.45;;;;;;;2.49;74.33;95382.78;5031024;28;20033;-76
2021/03/22 01:03:43;;;;;;;18.00;12.82;;;;;;;2.52;73.84;95379.66;5028943;28;20048;-77
2021/03/22 01:06:08;;;;;;;21.15;12.52;;;;;;;2.06;74.88;95342.41;5030329;28;20034;-72
2021/03/22 01:08:36;;;;;;;18.38;14.05;;;;;;;2.36;74.67;95385.78;5030384;28;20032;-76
2021/03/22 01:11:08;;;;;;;17.15;13.13;;;;;;;2.16;76.23;95386.34;5030669;28;20045;-77
2021/03/22 01:13:36;;;;;;;22.90;13.77;;;;;;;2.08;76.09;95385.72;5029953;28;20025;-74
2021/03/22 01:16:03;;;;;;;22.48;13.40;;;;;;;2.43;74.99;95386.38;5030122;28;20112;-76
2021/03/22 01:18:34;;;;;;;19.08;12.93;;;;;;;2.29;74.98;95365.75;5029223;28;20041;-73
2021/03/22 01:21:45;;;;;;;21.98;13.68;;;;;;;2.74;73.78;95377.78;5029332;28;20045;-73
2021/03/22 01:24:13;;;;;;;21.50;12.90;;;;;;;2.03;75.87;95377.78;5027280;28;20037;-74
2021/03/22 01:26:38;;;;;;;17.60;12.73;;;;;;;1.89;76.74;95365.28;5029300;28;20034;-73
2021/03/22 01:29:19;;;;;;;17.52;12.43;;;;;;;2.07;76.53;95386.75;5028936;28;20100;-73
2021/03/22 01:31:46;;;;;;;19.80;13.80;;;;;;;2.12;76.52;95374.75;5027624;28;20033;-75
2021/03/22 01:34:12;;;;;;;20.52;13.40;;;;;;;2.27;76.27;95369.69;5029974;28;20020;-74
2021/03/22 01:36:38;;;;;;;21.77;13.35;;;;;;;2.28;75.90;95379.13;5029055;28;20037;-74
2021/03/22 01:39:09;;;;;;;20.75;12.88;;;;;;;2.17;75.12;95348.56;5029055;28;20594;-73
2021/03/22 01:42:00;;;;;;;20.80;14.33;;;;;;;2.52;74.62;95363.91;5027617;28;20065;-73
2021/03/22 01:44:30;;;;;;;18.77;13.02;;;;;;;2.45;75.07;95353.59;5027928;28;20098;-74
2021/03/22 01:47:04;;;;;;;25.10;13.48;;;;;;;2.40;75.32;95368.50;5028981;28;20041;-75
2021/03/22 01:49:38;;;;;;;22.92;13.95;;;;;;;2.81;74.23;95362.59;5030907;28;20037;-75
2021/03/22 01:52:04;;;;;;;22.65;13.07;;;;;;;2.63;74.73;95357.72;5029177;28;20495;-74
2021/03/22 01:54:29;;;;;;;22.48;13.95;;;;;;;2.34;75.82;95349.28;5029063;28;20040;-73
2021/03/22 01:57:20;;;;;;;17.17;12.57;;;;;;;2.14;76.31;95356.91;5027686;28;20080;-74
2021/03/22 01:59:45;;;;;;;20.92;12.85;;;;;;;1.94;77.31;95346.97;5028208;28;20060;-73
2021/03/22 02:02:11;;;;;;;28.60;13.55;;;;;;;1.87;77.44;95328.81;5028796;28;20411;-74
2021/03/22 02:04:36;;;;;;;23.02;13.18;;;;;;;1.87;77.89;95349.78;5027543;28;20482;-73
2021/03/22 02:07:02;;;;;;;17.88;13.48;;;;;;;2.02;78.16;95349.19;5029305;28;20114;-75
2021/03/22 02:09:27;;;;;;;24.58;13.25;;;;;;;2.21;77.28;95354.91;5028866;28;20132;-73
2021/03/22 02:11:52;;;;;;;21.00;13.65;;;;;;;1.93;77.67;95354.06;5028409;28;20480;-73
2021/03/22 02:14:18;;;;;;;21.65;13.65;;;;;;;2.03;77.21;95348.13;5027228;28;20045;-74
2021/03/22 02:17:00;;;;;;;22.10;12.32;;;;;;;1.90;78.10;95353.78;5028655;28;20032;-74
2021/03/22 02:19:46;;;;;;;22.45;11.57;;;;;;;1.36;80.02;95356.97;5030757;28;20195;-73
2021/03/22 02:22:30;;;;;;;17.65;10.63;;;;;;;1.42;80.05;95360.47;5028911;28;20061;-73
2021/03/22 02:25:20;;;;;;;22.77;12.60;;;;;;;1.70;79.38;95372.66;5028626;28;20033;-74
2021/03/22 02:28:22;;;;;;;22.80;12.52;;;;;;;1.53;80.39;95370.84;5028560;28;20049;-74
2021/03/22 02:31:08;;;;;;;23.10;12.32;;;;;;;1.64;79.86;95376.22;5028631;28;20033;-74
2021/03/22 02:33:55;;;;;;;25.33;12.32;;;;;;;1.43;81.01;95386.41;5027250;28;20049;-74
2021/03/22 02:36:30;;;;;;;25.65;13.27;;;;;;;1.71;79.88;95379.47;5027310;28;20041;-75
2021/03/22 02:38:58;;;;;;;26.52;12.57;;;;;;;1.59;80.18;95382.22;5028427;28;20120;-74
2021/03/22 02:41:27;;;;;;;23.67;13.65;;;;;;;1.50;80.37;95376.59;5028339;28;20053;-74
2021/03/22 02:44:07;;;;;;;23.85;13.73;;;;;;;1.65;80.32;95385.69;5028449;28;20028;-72
2021/03/22 02:46:33;;;;;;;28.10;13.32;;;;;;;1.62;80.11;95392.19;5030376;28;20509;-74
2021/03/22 02:49:06;;;;;;;21.65;12.77;;;;;;;1.65;80.22;95393.56;5028683;28;20519;-75
2021/03/22 02:51:59;;;;;;;23.20;12.80;;;;;;;1.83;79.50;95398.53;5028013;28;20077;-74
2021/03/22 02:54:34;;;;;;;24.92;13.10;;;;;;;1.57;80.71;95392.13;5028350;28;20045;-73
2021/03/22 02:57:15;;;;;;;24.08;13.93;;;;;;;1.84;79.70;95386.97;5028170;28;20053;-73
2021/03/22 02:59:46;;;;;;;23.45;13.13;;;;;;;1.82;79.53;95389.84;5028608;28;20053;-74
2021/03/22 03:02:13;;;;;;;24.05;13.70;;;;;;;1.95;79.17;95396.59;5026788;28;20045;-74
2021/03/22 03:04:39;;;;;;;23.08;14.00;;;;;;;1.74;79.93;95379.81;5026038;28;20021;-74
2021/03/22 03:07:08;;;;;;;22.25;12.93;;;;;;;1.72;79.62;95386.31;5029185;28;20029;-73
2021/03/22 03:09:36;;;;;;;20.75;13.77;;;;;;;2.17;78.61;95407.09;5027019;28;20025;-73
2021/03/22 03:12:28;;;;;;;27.02;12.07;;;;;;;1.84;78.94;95413.22;5031361;28;20501;-74
2021/03/22 03:14:56;;;;;;;26.42;13.45;;;;;;;1.90;79.13;95417.50;5028697;28;20076;-73
2021/03/22 03:17:23;;;;;;;21.67;12.27;;;;;;;1.71;80.19;95424.06;5031487;28;20399;-74
2021/03/22 03:19:50;;;;;;;31.58;14.98;;;;;;;1.82;79.68;95423.16;5031563;28;20093;-74
2021/03/22 03:22:16;;;;;;;31.50;14.93;;;;;;;1.98;79.47;95421.53;5033076;28;20108;-74
2021/03/22 03:24:42;;;;;;;24.10;12.35;;;;;;;1.98;78.45;95416.28;5031563;28;20168;-73
2021/03/22 03:27:09;;;;;;;23.23;11.40;;;;;;;1.92;78.27;95404.94;5031628;28;20030;-73
2021/03/22 03:29:36;;;;;;;28.17;12.93;;;;;;;1.79;78.94;95395.59;5031488;28;20034;-73
2021/03/22 03:32:02;;;;;;;28.00;13.25;;;;;;;1.89;78.59;95413.28;5031051;28;20037;-73
2021/03/22 03:34:27;;;;;;;24.77;12.23;;;;;;;2.03;78.30;95414.53;5033199;28;20025;-73
2021/03/22 03:36:52;;;;;;;24.98;11.45;;;;;;;1.70;79.04;95406.75;5031041;28;20040;-73
2021/03/22 03:39:18;;;;;;;20.88;11.52;;;;;;;1.99;78.36;95410.78;5030954;28;20131;-73
2021/03/22 03:41:44;;;;;;;30.55;12.85;;;;;;;1.88;78.53;95422.19;5031069;28;20167;-73
2021/03/22 03:44:11;;;;;;;29.73;13.23;;;;;;;1.88;79.39;95427.44;5031341;28;20079;-73
2021/03/22 03:46:38;;;;;;;30.88;13.00;;;;;;;2.14;78.43;95417.28;5031071;28;20025;-76
2021/03/22 03:49:05;;;;;;;31.73;14.27;;;;;;;2.24;77.77;95428.69;5032817;28;20480;-74
2021/03/22 03:51:32;;;;;;;35.08;13.88;;;;;;;1.77;79.35;95420.47;5030577;28;20041;-74
2021/03/22 03:53:58;;;;;;;24.33;12.38;;;;;;;1.67;80.21;95431.59;5031033;28;20037;-74
2021/03/22 03:56:26;;;;;;;28.50;12.77;;;;;;;1.80;80.12;95412.13;5030846;28;20026;-73
2021/03/22 03:58:51;;;;;;;33.25;13.80;;;;;;;1.74;79.91;95394.72;5030768;28;20108;-74
2021/03/22 04:01:16;;;;;;;30.15;14.20;;;;;;;1.76;79.91;95408.41;5032500;28;20096;-73
2021/03/22 04:03:42;;;;;;;31.00;13.27;;;;;;;1.87;79.67;95412.75;5030914;28;20048;-73
2021/03/22 04:06:13;;;;;;;25.42;12.45;;;;;;;1.71;80.45;95411.75;5029499;28;20380;-73
2021/03/22 04:08:48;;;;;;;23.73;12.80;;;;;;;1.82;79.95;95416.09;5030392;28;20037;-74
2021/03/22 04:11:19;;;;;;;26.60;14.20;;;;;;;1.98;79.48;95427.56;5030490;28;20065;-73
2021/03/22 04:13:44;;;;;;;26.58;12.05;;;;;;;1.76;79.64;95421.50;5029144;28;20388;-75
2021/03/22 04:16:12;;;;;;;26.35;11.98;;;;;;;1.92;79.73;95418.06;5032512;28;20032;-74
2021/03/22 04:18:40;;;;;;;39.35;12.45;;;;;;;1.84;79.71;95413.22;5030224;28;20045;-73
2021/03/22 04:21:10;;;;;;;32.45;13.15;;;;;;;1.71;79.49;95418.81;5029910;28;20127;-73
2021/03/22 04:23:37;;;;;;;29.65;11.55;;;;;;;1.70;79.96;95431.13;5030117;28;20128;-73
2021/03/22 04:26:04;;;;;;;34.78;13.00;;;;;;;1.85;80.28;95437.63;5030492;28;20064;-74
2021/03/22 04:28:30;;;;;;;31.10;11.20;;;;;;;1.56;80.57;95429.88;5031877;28;20021;-75
2021/03/22 04:30:56;;;;;;;31.58;10.48;;;;;;;1.69;80.41;95449.72;5030279;28;20076;-74
2021/03/22 04:33:21;;;;;;;22.35;10.05;;;;;;;1.62;80.31;95438.59;5027542;22;20042;-64
2021/03/22 04:35:47;;;;;;;28.27;12.52;;;;;;;1.74;80.08;95444.53;5008689;28;20038;-65
2021/03/22 04:38:12;;;;;;;35.65;11.25;;;;;;;1.54;80.22;95406.53;5009918;28;20053;-65
2021/03/22 04:40:38;;;;;;;29.90;11.48;;;;;;;1.96;78.53;95416.53;4992152;28;20096;-65
2021/03/22 04:43:03;;;;;;;27.17;10.38;;;;;;;1.45;79.14;95396.69;5011528;28;20342;-64
2021/03/22 04:45:30;;;;;;;23.88;10.55;;;;;;;1.84;78.70;95405.34;5010026;28;20042;-65
2021/03/22 04:47:56;;;;;;;27.15;10.85;;;;;;;1.89;79.31;95436.09;5009602;28;20038;-65
2021/03/22 04:50:26;;;;;;;30.90;11.10;;;;;;;2.06;78.19;95429.00;5009703;28;20038;-65
2021/03/22 04:52:52;;;;;;;30.20;10.43;;;;;;;1.85;79.02;95422.69;5009334;28;20121;-65
2021/03/22 04:55:20;;;;;;;31.33;9.52;;;;;;;1.25;79.79;95391.94;5011703;28;20033;-64
2021/03/22 04:57:46;;;;;;;34.60;11.02;;;;;;;1.72;79.66;95436.94;5009447;28;20403;-64
2021/03/22 05:00:20;;;;;;;33.25;11.15;;;;;;;2.03;78.21;95432.09;5009742;28;20046;-64
2021/03/22 05:02:46;;;;;;;35.55;10.18;;;;;;;1.79;78.71;95440.19;5009356;28;20042;-65
2021/03/22 05:05:12;;;;;;;35.85;10.50;;;;;;;2.10;77.92;95417.00;5009540;28;20048;-65
2021/03/22 05:07:37;;;;;;;31.75;10.43;;;;;;;2.34;76.79;95433.28;5009325;28;20731;-64
2021/03/22 05:10:08;;;;;;;30.15;9.85;;;;;;;2.13;77.43;95423.56;5011333;28;20149;-66
2021/03/22 05:12:33;;;;;;;34.22;10.93;;;;;;;2.20;76.20;95432.03;4991356;28;20054;-64
2021/03/22 05:14:59;;;;;;;39.08;10.88;;;;;;;1.95;77.68;95432.53;4991605;28;20458;-64
2021/03/22 05:17:24;;;;;;;26.95;8.65;;;;;;;1.38;79.20;95415.19;5009035;28;20046;-65
2021/03/22 05:19:50;;;;;;;29.48;9.23;;;;;;;2.16;77.09;95446.72;5009153;28;20477;-64
2021/03/22 05:22:15;;;;;;;26.30;9.60;;;;;;;1.79;77.84;95437.56;5011021;28;20076;-65
2021/03/22 05:24:41;;;;;;;24.98;9.48;;;;;;;1.61;78.06;95429.16;5009183;28;20483;-65
2021/03/22 05:27:06;;;;;;;33.13;9.60;;;;;;;1.78;77.74;95437.78;4991234;28;20503;-65
2021/03/22 05:29:32;;;;;;;28.08;8.98;;;;;;;1.74;78.32;95449.78;5009062;28;20046;-65
2021/03/22 05:31:57;;;;;;;31.63;10.00;;;;;;;2.04;76.97;95447.59;5008643;28;20394;-65
2021/03/22 05:34:23;;;;;;;32.17;9.30;;;;;;;1.64;78.63;95447.00;5010936;28;20042;-65
2021/03/22 05:36:50;;;;;;;30.48;8.88;;;;;;;1.71;78.01;95440.59;4991058;28;20052;-65
2021/03/22 05:39:16;;;;;;;31.48;9.85;;;;;;;1.96;76.79;95411.28;5008945;28;20042;-65
2021/03/22 05:41:47;;;;;;;41.35;10.95;;;;;;;1.77;77.37;95430.97;4991180;28;20045;-65
2021/03/22 05:44:20;;;;;;;21.97;8.00;;;;;;;1.56;78.63;95437.75;4991717;28;20117;-69
2021/03/22 05:46:57;;;;;;;36.80;9.63;;;;;;;2.05;77.25;95454.44;5007594;28;20048;-67
2021/03/22 05:50:05;;;;;;;30.73;8.82;;;;;;;1.88;77.70;95458.13;4973568;28;20033;-66
2021/03/22 05:52:36;;;;;;;31.70;10.25;;;;;;;2.30;76.06;95466.28;4989692;28;20045;-64
2021/03/22 05:55:13;;;;;;;27.33;7.78;;;;;;;2.30;75.93;95461.03;5009075;28;20041;-64
2021/03/22 05:57:53;;;;;;;47.92;8.90;;;;;;;1.84;75.92;95413.22;4991449;28;20042;-64
2021/03/22 06:00:42;;;;;;;23.83;8.20;;;;;;;2.43;75.26;95467.78;5003352;28;20057;-64
2021/03/22 06:03:34;;;;;;;25.13;6.78;;;;;;;2.18;75.14;95458.53;4990662;28;20157;-65
2021/03/22 06:06:07;;;;;;;24.40;8.10;;;;;;;2.28;74.57;95456.03;5002348;28;20038;-63
2021/03/22 06:08:43;;;;;;;29.95;8.80;;;;;;;2.35;74.44;95474.22;5008096;28;20026;-66
2021/03/22 06:11:21;;;;;;;35.38;8.18;;;;;;;2.19;75.40;95485.56;5008102;28;20392;-65
2021/03/22 06:13:49;;;;;;;24.35;7.03;;;;;;;2.30;74.12;95468.91;5008593;28;20033;-65
2021/03/22 06:16:37;;;;;;;35.50;8.70;;;;;;;1.96;74.82;95460.34;4992866;28;20423;-64
2021/03/22 06:19:15;;;;;;;22.08;6.78;;;;;;;1.95;74.57;95451.69;5008679;28;20046;-64
2021/03/22 06:21:47;;;;;;;26.50;7.38;;;;;;;2.57;73.98;95497.88;4990922;28;20425;-64
2021/03/22 06:24:25;;;;;;;35.15;7.88;;;;;;;2.22;73.83;95496.38;4985005;28;20775;-64
2021/03/22 06:26:57;;;;;;;25.42;6.00;;;;;;;2.33;74.14;95495.47;4997972;28;20433;-65
2021/03/22 06:29:36;;;;;;;32.92;8.05;;;;;;;2.25;73.69;95474.09;4977780;28;20044;-63
2021/03/22 06:32:09;;;;;;;32.78;7.88;;;;;;;2.71;73.23;95493.81;5007817;28;20092;-65
2021/03/22 06:34:42;;;;;;;28.85;7.03;;;;;;;2.82;71.54;95492.94;5008374;28;20117;-63
2021/03/22 06:37:11;;;;;;;34.25;6.00;;;;;;;1.94;73.16;95457.16;5010068;28;20047;-65
2021/03/22 06:39:36;;;;;;;32.70;6.90;;;;;;;2.52;72.07;95490.75;5008027;28;20566;-64
2021/03/22 06:42:16;;;;;;;21.55;6.68;;;;;;;2.65;72.24;95505.31;5008019;28;20050;-64
2021/03/22 06:44:42;;;;;;;33.80;7.45;;;;;;;2.20;72.72;95459.09;5008501;28;20125;-63
2021/03/22 06:47:13;;;;;;;25.25;5.68;;;;;;;2.57;72.53;95506.56;5011510;28;20568;-67
2021/03/22 06:49:44;;;;;;;26.00;6.47;;;;;;;2.20;73.14;95490.59;5011758;28;20030;-68
2021/03/22 06:52:14;;;;;;;28.33;5.73;;;;;;;1.65;74.79;95475.63;4995720;28;20116;-66
2021/03/22 06:54:45;;;;;;;24.13;5.05;;;;;;;1.82;75.16;95533.31;5011830;28;20281;-69
2021/03/22 06:57:19;;;;;;;28.15;6.57;;;;;;;1.89;75.12;95539.19;5005269;28;20077;-69
2021/03/22 07:00:10;;;;;;;28.38;6.75;;;;;;;2.05;75.41;95533.16;4990388;28;20030;-69
2021/03/22 07:02:50;;;;;;;27.77;7.00;;;;;;;1.70;75.89;95530.78;4992380;28;20053;-70
2021/03/22 07:05:24;;;;;;;22.98;5.90;;;;;;;2.19;75.14;95535.44;4993261;28;20037;-70
2021/03/22 07:07:53;;;;;;;29.20;6.15;;;;;;;2.65;73.93;95536.03;4992993;28;20105;-70
2021/03/22 07:10:19;;;;;;;35.83;6.95;;;;;;;2.51;73.30;95541.66;4995273;28;20116;-70
2021/03/22 07:12:44;;;;;;;33.97;7.00;;;;;;;2.36;74.00;95524.94;4992863;28;20493;-69
2021/03/22 07:15:19;;;;;;;27.90;6.50;;;;;;;2.34;72.97;95522.53;4975418;28;20041;-69
2021/03/22 07:18:19;;;;;;;25.67;6.80;;;;;;;2.75;72.23;95539.59;4993012;28;20034;-69
2021/03/22 07:21:07;;;;;;;21.25;5.80;;;;;;;2.55;72.43;95545.38;4985678;28;20027;-67
2021/03/22 07:23:47;;;;;;;30.17;6.22;;;;;;;3.18;70.68;95553.75;4992711;28;20105;-70
2021/03/22 07:26:49;;;;;;;24.10;5.50;;;;;;;3.09;70.99;95542.88;4993071;28;20046;-69
2021/03/22 07:29:23;;;;;;;22.73;5.90;;;;;;;2.86;71.67;95557.06;4992708;28;20049;-69
2021/03/22 07:32:07;;;;;;;29.15;6.80;;;;;;;4.09;68.58;95551.13;4974541;28;20042;-69
2021/03/22 07:34:57;;;;;;;37.70;8.15;;;;;;;3.99;67.15;95551.06;4994506;28;20030;-68
2021/03/22 07:37:31;;;;;;;20.90;5.40;;;;;;;3.03;68.38;95575.41;4991606;28;20243;-71
2021/03/22 07:40:18;;;;;;;25.17;5.22;;;;;;;3.21;68.18;95568.22;4992627;28;20130;-69
2021/03/22 07:42:51;;;;;;;28.33;5.93;;;;;;;3.68;66.74;95560.53;4992197;28;20054;-69
2021/03/22 07:45:45;;;;;;;22.85;6.63;;;;;;;4.16;65.91;95561.47;4992266;28;20042;-68
2021/03/22 07:48:28;;;;;;;23.45;5.30;;;;;;;3.72;66.03;95555.56;4991808;28;20050;-69
2021/03/22 07:51:03;;;;;;;21.75;5.68;;;;;;;4.24;65.97;95566.25;4991984;28;20125;-70
2021/03/22 07:53:44;;;;;;;27.27;6.10;;;;;;;3.31;68.24;95565.72;4984627;28;20497;-69
2021/03/22 07:56:12;;;;;;;31.33;5.82;;;;;;;4.21;64.91;95523.84;4959444;28;20041;-69
2021/03/22 07:58:47;;;;;;;27.92;7.50;;;;;;;3.87;64.50;95503.06;4991026;28;20489;-69
2021/03/22 08:01:39;;;;;;;15.38;5.57;;;;;;;4.17;64.22;95563.84;4957318;28;20610;-68
2021/03/22 08:04:39;;;;;;;22.47;5.23;;;;;;;3.27;66.97;95567.25;4974732;28;20058;-69
2021/03/22 08:07:28;;;;;;;23.58;4.68;;;;;;;3.54;66.69;95568.06;4992201;28;20782;-70
2021/03/22 08:10:10;;;;;;;29.58;5.82;;;;;;;3.62;66.43;95553.66;4973075;28;20067;-69
2021/03/22 08:13:05;;;;;;;27.58;5.93;;;;;;;3.87;64.79;95576.75;4972235;28;20042;-68
2021/03/22 08:15:43;;;;;;;23.50;5.30;;;;;;;4.04;65.56;95568.72;4970790;28;20042;-69
2021/03/22 08:18:29;;;;;;;31.60;5.68;;;;;;;3.29;65.92;95518.63;4991674;28;20114;-69
2021/03/22 08:21:09;;;;;;;34.35;5.63;;;;;;;3.22;67.26;95583.75;4991412;28;20031;-68
2021/03/22 08:24:02;;;;;;;23.92;5.70;;;;;;;3.83;67.19;95573.81;4966246;28;20090;-64
2021/03/22 08:26:35;;;;;;;25.92;6.10;;;;;;;4.60;64.07;95569.09;4979464;28;20062;-63
2021/03/22 08:29:21;;;;;;;38.10;6.65;;;;;;;5.29;63.13;95579.44;4991737;28;20080;-63
2021/03/22 08:31:54;;;;;;;29.25;7.28;;;;;;;5.36;62.00;95581.81;4991240;28;20131;-63
2021/03/22 08:34:46;;;;;;;34.05;6.03;;;;;;;5.03;61.83;95581.19;4975985;28;20038;-63
2021/03/22 08:37:17;;;;;;;26.02;6.30;;;;;;;5.53;59.91;95585.03;4991768;28;20042;-65
2021/03/22 08:39:58;;;;;;;24.48;6.18;;;;;;;4.61;61.42;95589.94;4973954;28;20035;-64
2021/03/22 08:42:28;;;;;;;30.27;6.32;;;;;;;4.59;63.10;95592.03;4986508;28;20066;-68
2021/03/22 08:45:27;;;;;;;21.02;4.90;;;;;;;3.51;66.75;95594.84;4980722;28;20047;-64
2021/03/22 08:48:19;;;;;;;29.85;6.80;;;;;;;3.88;65.03;95607.28;4982630;28;20046;-64
2021/03/22 08:50:46;;;;;;;23.60;5.68;;;;;;;3.85;64.64;95605.16;4990588;28;20053;-59
2021/03/22 08:53:19;;;;;;;29.00;5.07;;;;;;;3.81;65.00;95596.97;4973434;28;20472;-62
2021/03/22 08:55:53;;;;;;;26.15;5.45;;;;;;;3.42;65.40;95564.75;4991452;28;20436;-64
2021/03/22 08:58:23;;;;;;;31.25;5.53;;;;;;;4.49;62.32;95597.22;4993023;28;20037;-63
2021/03/22 09:00:51;;;;;;;29.35;6.55;;;;;;;5.01;60.65;95593.03;4973516;28;20467;-64
2021/03/22 09:03:28;;;;;;;24.77;5.15;;;;;;;5.60;58.94;95611.97;4990773;28;20058;-64
2021/03/22 09:06:11;;;;;;;23.88;5.32;;;;;;;4.44;61.63;95607.72;4980275;28;20070;-64
2021/03/22 09:08:39;;;;;;;26.60;6.07;;;;;;;4.24;62.81;95615.47;4979202;28;20031;-65
2021/03/22 09:11:23;;;;;;;29.42;6.65;;;;;;;4.36;62.76;95621.38;4986591;28;20493;-64
2021/03/22 09:14:03;;;;;;;25.48;5.75;;;;;;;4.47;61.76;95620.41;4973664;28;20033;-64
2021/03/22 09:16:43;;;;;;;37.45;5.80;;;;;;;4.81;61.54;95627.97;4993000;28;20030;-65
2021/03/22 09:19:09;;;;;;;30.45;5.53;;;;;;;4.28;62.80;95624.47;4991278;28;20065;-63
2021/03/22 09:21:44;;;;;;;26.02;5.65;;;;;;;4.88;61.39;95624.06;4973970;28;20501;-65
2021/03/22 09:24:37;;;;;;;23.33;6.00;;;;;;;5.17;60.71;95619.22;4966753;28;20050;-63
2021/03/22 09:27:15;;;;;;;31.15;5.90;;;;;;;4.57;61.43;95631.00;4978378;28;20039;-67
2021/03/22 09:29:42;;;;;;;26.00;6.05;;;;;;;3.69;64.74;95604.25;4980085;28;20121;-65
2021/03/22 09:32:36;;;;;;;24.88;5.63;;;;;;;3.75;65.33;95637.44;4972753;28;20044;-64
2021/03/22 09:35:14;;;;;;;29.33;5.65;;;;;;;4.24;64.33;95647.06;4986504;28;20117;-64
2021/03/22 09:37:56;;;;;;;23.00;5.90;;;;;;;4.21;63.89;95647.59;4989914;28;20033;-68
2021/03/22 09:40:24;;;;;;;32.92;5.40;;;;;;;4.67;64.49;95643.47;4992509;28;20105;-68
2021/03/22 09:43:08;;;;;;;25.70;5.25;;;;;;;4.73;63.42;95645.06;4954163;28;20393;-67
2021/03/22 09:45:50;;;;;;;25.92;5.45;;;;;;;4.99;61.98;95651.28;4970998;28;20032;-62
2021/03/22 09:48:15;;;;;;;;;;;;;;;5.01;61.05;95649.19;4985025;28;20034;-59
2021/03/22 09:50:42;;;;;;;35.17;5.60;;;;;;;4.43;63.92;95637.75;4989796;28;20106;-61
2021/03/22 09:53:16;;;;;;;25.83;5.47;;;;;;;4.70;62.42;95641.09;4989805;28;20057;-62
2021/03/22 09:55:56;;;;;;;22.88;4.70;;;;;;;4.07;64.43;95647.22;4988862;28;20030;-63
2021/03/22 09:58:27;;;;;;;18.08;4.68;;;;;;;3.92;65.82;95653.13;4972276;28;20046;-61
2021/03/22 10:01:04;;;;;;;25.90;5.47;;;;;;;4.36;64.21;95635.34;4989473;28;20042;-62
2021/03/22 10:03:35;;;;;;;21.77;5.40;;;;;;;4.73;62.51;95652.19;4990053;28;20492;-62
2021/03/22 10:06:06;;;;;;;20.85;5.20;;;;;;;4.35;62.55;95617.97;4989854;28;20043;-65
2021/03/22 10:08:40;;;;;;;15.02;4.93;;;;;;;6.54;58.77;95630.28;4982028;28;20093;-66
2021/03/22 10:11:25;;;;;;;22.65;5.35;;;;;;;5.57;57.96;95635.44;4974787;28;20049;-65
2021/03/22 10:13:52;;;;;;;20.73;5.55;;;;;;;4.52;61.18;95622.28;4989767;28;20034;-65
2021/03/22 10:16:17;;;;;;;23.08;5.30;;;;;;;4.72;61.61;95640.84;4992072;28;20026;-62
2021/03/22 10:18:48;;;;;;;22.55;6.97;;;;;;;4.72;61.69;95638.22;4989865;28;20049;-62
2021/03/22 10:21:21;;;;;;;25.00;5.57;;;;;;;4.68;61.66;95640.56;4978808;28;20196;-63
2021/03/22 10:24:02;;;;;;;34.40;6.18;;;;;;;4.60;61.95;95630.50;4957208;28;20046;-66
2021/03/22 10:26:41;;;;;;;19.65;4.80;;;;;;;4.29;62.09;95607.63;4974544;28;20065;-67
2021/03/22 10:29:33;;;;;;;22.15;4.95;;;;;;;3.99;64.16;95624.75;4978859;28;20038;-67
2021/03/22 10:31:58;;;;;;;20.13;5.38;;;;;;;4.46;64.29;95639.09;4985423;28;20102;-67
2021/03/22 10:34:32;;;;;;;16.67;4.30;;;;;;;4.47;62.90;95623.03;4976286;28;20031;-66
2021/03/22 10:37:10;;;;;;;20.85;5.53;;;;;;;4.73;61.53;95639.00;4993509;28;20395;-67
2021/03/22 10:39:40;;;;;;;23.10;4.93;;;;;;;4.30;62.44;95643.44;4996015;23;20137;-66
2021/03/22 10:42:30;;;;;;;14.75;4.30;;;;;;;3.85;64.21;95645.44;4978718;28;20049;-68
2021/03/22 10:44:57;;;;;;;17.17;4.10;;;;;;;3.83;64.34;95641.44;4992417;28;20069;-68
2021/03/22 10:47:28;;;;;;;19.88;4.78;;;;;;;4.60;59.75;95598.88;4993203;28;20794;-67
2021/03/22 10:49:54;;;;;;;21.20;5.20;;;;;;;5.13;60.42;95639.22;4991750;28;20489;-68
2021/03/22 10:52:28;;;;;;;11.95;4.30;;;;;;;4.38;62.83;95649.03;4993633;28;20027;-68
2021/03/22 10:54:55;;;;;;;22.75;5.10;;;;;;;4.82;60.84;95632.22;4993568;28;20480;-67
2021/03/22 10:57:29;;;;;;;23.45;5.47;;;;;;;5.72;58.76;95632.81;4991570;28;20039;-67
2021/03/22 10:59:57;;;;;;;29.75;6.30;;;;;;;4.30;62.70;95623.19;5004315;28;20111;-67
2021/03/22 11:02:29;;;;;;;22.52;5.68;;;;;;;5.48;61.26;95645.72;5011216;28;20040;-67
2021/03/22 11:04:57;;;;;;;22.85;5.72;;;;;;;5.39;59.06;95612.97;5013109;28;20041;-65
2021/03/22 11:07:25;;;;;;;17.92;4.43;;;;;;;4.24;61.99;95634.69;5014558;28;20026;-66
2021/03/22 11:10:12;;;;;;;15.20;4.00;;;;;;;4.00;63.52;95642.16;5011337;28;20428;-69
2021/03/22 11:12:42;;;;;;;23.65;5.88;;;;;;;4.39;63.62;95641.94;5012127;28;20551;-67
2021/03/22 11:15:15;;;;;;;19.58;5.43;;;;;;;4.11;61.94;95627.25;5012687;28;20038;-67
2021/03/22 11:17:42;;;;;;;20.50;4.82;;;;;;;3.90;62.61;95626.28;5012344;28;20038;-66
2021/03/22 11:20:08;;;;;;;24.20;5.53;;;;;;;4.18;62.59;95647.03;5012012;28;20116;-62
2021/03/22 11:22:38;;;;;;;23.92;5.43;;;;;;;4.31;61.50;95637.94;5012486;28;20043;-64
2021/03/22 11:25:30;;;;;;;22.45;4.80;;;;;;;5.41;58.35;95634.59;5014524;28;20030;-64
2021/03/22 11:28:03;;;;;;;16.33;4.10;;;;;;;4.29;60.31;95607.63;5012051;28;20037;-63
2021/03/22 11:30:37;;;;;;;26.20;5.40;;;;;;;4.73;59.86;95639.81;5010971;28;20315;-66
2021/03/22 11:33:14;;;;;;;20.73;3.95;;;;;;;4.45;60.38;95646.19;5012056;28;20041;-66
2021/03/22 11:35:41;;;;;;;25.42;5.13;;;;;;;4.12;62.63;95655.94;5011501;28;20492;-65
2021/03/22 11:38:20;;;;;;;14.38;3.67;;;;;;;4.03;61.51;95648.75;5012016;28;20041;-64
2021/03/22 11:40:46;;;;;;;12.98;4.43;;;;;;;3.96;61.54;95656.06;5012208;28;20038;-66
2021/03/22 11:43:32;;;;;;;17.92;4.38;;;;;;;3.96;61.11;95641.06;5013953;28;20533;-67
2021/03/22 11:46:22;;;;;;;20.05;4.10;;;;;;;4.22;59.02;95628.13;5011881;28;20492;-66
2021/03/22 11:48:47;;;;;;;13.20;3.40;;;;;;;4.08;59.60;95631.16;5012017;28;20050;-66
2021/03/22 11:51:13;;;;;;;16.15;5.22;;;;;;;4.77;59.34;95640.09;5011479;28;20534;-66
2021/03/22 11:53:59;;;;;;;19.10;5.05;;;;;;;4.86;57.45;95652.53;5010623;28;20080;-65
2021/03/22 11:56:28;;;;;;;19.48;4.45;;;;;;;3.97;60.63;95653.16;5011756;28;20128;-66